Time;durP1;ratioP1;P1;durP2;ratioP2;P2;SDS_P1;SDS_P2;PMS_P1;PMS_P2;Temp;Humidity;BMP_temperature;BMP_pressure;BME280_temperature;BME280_humidity;BME280_pressure;Samples;Min_cycle;Max_cycle;Signal;HPM_P1;HPM_P2
2022/01/25 00:24:29;;;;;;;42.83;21.97;;;;;;;-0.02;100.00;97771.47;5044627;28;20261;-82
2022/01/25 00:27:13;;;;;;;38.67;20.90;;;;;;;-0.02;100.00;97770.63;5022878;28;20216;-83
2022/01/25 00:29:56;;;;;;;37.33;19.83;;;;;;;-0.03;100.00;97764.47;5026525;28;20230;-83
2022/01/25 00:32:24;;;;;;;41.77;21.37;;;;;;;-0.06;100.00;97759.41;5021997;28;20209;-83
2022/01/25 00:34:51;;;;;;;40.73;20.73;;;;;;;-0.02;100.00;97763.50;5021576;28;20250;-82
2022/01/25 00:37:20;;;;;;;37.60;20.00;;;;;;;0.02;100.00;97771.19;5022262;28;20274;-83
2022/01/25 00:39:48;;;;;;;34.40;20.37;;;;;;;-0.03;100.00;97753.00;5043287;28;20298;-84
2022/01/25 00:42:15;;;;;;;36.17;18.53;;;;;;;0.01;100.00;97754.41;5028649;28;20210;-83
2022/01/25 00:44:47;;;;;;;37.93;20.53;;;;;;;-0.03;100.00;97751.19;5027109;28;20297;-84
2022/01/25 00:47:15;;;;;;;42.03;20.67;;;;;;;-0.05;100.00;97750.47;5029016;28;20226;-83
2022/01/25 00:49:44;;;;;;;37.97;20.63;;;;;;;-0.14;100.00;97750.41;5025461;28;20198;-84
2022/01/25 00:53:52;;;;;;;41.33;21.63;;;;;;;-0.16;100.00;97752.34;5026839;28;20198;-83
2022/01/25 00:55:12;;;;;;;39.60;21.27;;;;;;;-0.19;100.00;97750.81;5040634;28;20209;-83
2022/01/25 00:57:39;;;;;;;40.07;21.87;;;;;;;-0.20;100.00;97741.16;5024424;28;20209;-83
2022/01/25 01:00:08;;;;;;;40.03;21.67;;;;;;;-0.24;100.00;97737.06;5042474;28;20277;-82
2022/01/25 01:02:35;;;;;;;40.73;22.27;;;;;;;-0.19;100.00;97748.16;5027795;28;20202;-82
2022/01/25 01:05:03;;;;;;;40.63;21.70;;;;;;;-0.28;100.00;97738.31;5020328;28;20206;-82
2022/01/25 01:07:30;;;;;;;40.17;20.63;;;;;;;-0.24;100.00;97742.38;5023876;28;20232;-82
2022/01/25 01:09:59;;;;;;;37.17;20.37;;;;;;;-0.25;100.00;97738.03;5043657;28;20209;-83
2022/01/25 01:13:15;;;;;;;39.87;20.07;;;;;;;-0.15;100.00;97752.22;5029752;28;20239;-82
2022/01/25 01:15:28;;;;;;;42.03;20.80;;;;;;;-0.13;100.00;97752.94;5025321;28;20209;-83
2022/01/25 01:29:21;;;;;;;40.40;21.93;;;;;;;-0.13;100.00;97758.25;4959085;28;20233;-83
2022/01/25 01:32:02;;;;;;;42.80;22.23;;;;;;;-0.16;100.00;97755.84;5006619;28;20213;-82
2022/01/25 01:42:58;;;;;;;46.03;21.93;;;;;;;-0.27;100.00;97757.72;5001631;28;20206;-84
2022/01/25 01:45:39;;;;;;;43.37;21.70;;;;;;;-0.30;100.00;97752.66;5042474;28;20210;-84
2022/01/25 01:48:10;;;;;;;42.03;21.90;;;;;;;-0.23;100.00;97759.97;5024336;28;20222;-82
2022/01/25 01:50:39;;;;;;;45.77;21.73;;;;;;;-0.19;100.00;97758.78;5024007;28;20202;-83
2022/01/25 01:53:08;;;;;;;41.53;22.10;;;;;;;-0.17;100.00;97759.47;5020718;28;20245;-82
2022/01/25 01:55:37;;;;;;;40.30;21.60;;;;;;;-0.19;100.00;97757.94;5021769;28;20214;-82
2022/01/25 01:58:05;;;;;;;40.80;21.57;;;;;;;-0.13;100.00;97755.59;5030564;28;20227;-83
2022/01/25 02:00:37;;;;;;;39.53;21.37;;;;;;;-0.13;100.00;97758.25;5029834;28;20307;-82
2022/01/25 02:03:05;;;;;;;41.50;21.43;;;;;;;-0.21;100.00;97752.75;5039136;28;20210;-83
2022/01/25 02:05:33;;;;;;;43.43;22.03;;;;;;;-0.21;100.00;97758.06;5021974;28;20209;-83
2022/01/25 02:08:01;;;;;;;44.60;22.53;;;;;;;-0.23;100.00;97751.19;5028506;28;20307;-83
2022/01/25 02:10:28;;;;;;;43.07;22.57;;;;;;;-0.27;100.00;97747.97;5029703;28;20198;-83
2022/01/25 02:12:56;;;;;;;45.93;22.37;;;;;;;-0.26;100.00;97752.28;5024301;28;20288;-83
2022/01/25 02:15:25;;;;;;;40.40;20.80;;;;;;;-0.21;100.00;97763.34;5025977;28;20297;-83
2022/01/25 02:22:24;;;;;;;36.57;19.27;;;;;;;-0.19;100.00;97761.44;5046213;28;20202;-83
2022/01/25 02:23:31;;;;;;;36.83;19.20;;;;;;;-0.20;100.00;97765.03;5027657;28;20207;-82
2022/01/25 02:26:00;;;;;;;38.70;19.97;;;;;;;-0.21;100.00;97766.00;5043499;28;20267;-84
2022/01/25 02:28:29;;;;;;;39.20;20.57;;;;;;;-0.23;100.00;97767.94;5035199;28;20256;-84
2022/01/25 02:30:57;;;;;;;42.50;20.17;;;;;;;-0.21;100.00;97763.34;5046511;28;20275;-83
2022/01/25 02:33:26;;;;;;;38.97;21.10;;;;;;;-0.26;100.00;97757.59;5027763;28;20202;-82
2022/01/25 02:35:55;;;;;;;43.07;21.20;;;;;;;-0.23;100.00;97767.94;5024452;28;20521;-82
2022/01/25 02:38:25;;;;;;;39.17;20.03;;;;;;;-0.22;100.00;97761.66;5024807;28;20212;-83
2022/01/25 02:40:52;;;;;;;36.03;19.43;;;;;;;-0.22;100.00;97764.31;5038020;28;20269;-81
2022/01/25 02:43:21;;;;;;;36.07;20.53;;;;;;;-0.30;100.00;97760.63;5023218;28;20210;-82
2022/01/25 02:46:03;;;;;;;39.17;20.50;;;;;;;-0.36;100.00;97764.66;5026772;28;20212;-83
2022/01/25 02:48:30;;;;;;;44.13;21.43;;;;;;;-0.42;100.00;97758.03;5042023;28;20223;-83
2022/01/25 02:51:00;;;;;;;43.87;22.07;;;;;;;-0.33;100.00;97767.03;5025770;28;20195;-82
2022/01/25 02:53:28;;;;;;;34.93;19.73;;;;;;;-0.39;100.00;97764.91;5035273;28;20206;-83
2022/01/25 02:55:56;;;;;;;44.57;22.10;;;;;;;-0.33;100.00;97772.34;5051032;28;20205;-82
2022/01/25 02:58:23;;;;;;;43.73;21.87;;;;;;;-0.40;100.00;97774.66;5023200;28;20617;-83
2022/01/25 03:00:50;;;;;;;42.27;20.90;;;;;;;-0.40;100.00;97772.00;5024347;28;20203;-83
2022/01/25 03:03:18;;;;;;;39.67;20.43;;;;;;;-0.35;100.00;97768.16;5036768;28;20202;-83
2022/01/25 03:05:45;;;;;;;37.80;20.30;;;;;;;-0.30;100.00;97765.94;5042005;28;20232;-83
2022/01/25 03:08:15;;;;;;;40.30;19.87;;;;;;;-0.32;100.00;97759.91;5046060;28;20257;-82
2022/01/25 03:10:45;;;;;;;38.67;20.30;;;;;;;-0.29;100.00;97759.66;5038915;28;20308;-84
2022/01/25 03:13:17;;;;;;;42.10;20.27;;;;;;;-0.46;100.00;97759.25;5025967;28;20209;-84
2022/01/25 03:16:04;;;;;;;40.10;21.50;;;;;;;-0.55;100.00;97764.47;5042841;28;20247;-83
2022/01/25 03:18:45;;;;;;;34.50;19.03;;;;;;;-0.57;100.00;97769.91;5026705;28;20227;-85
2022/01/25 03:21:32;;;;;;;41.17;19.97;;;;;;;-0.65;100.00;97758.25;5042401;28;20217;-83
2022/01/25 03:24:01;;;;;;;41.50;20.97;;;;;;;-0.63;100.00;97758.97;5044650;28;20204;-82
2022/01/25 03:26:29;;;;;;;42.37;21.37;;;;;;;-0.73;100.00;97758.88;5030281;28;20214;-84
2022/01/25 03:28:56;;;;;;;43.23;21.50;;;;;;;-0.70;100.00;97758.63;5046098;28;20280;-83
2022/01/25 03:31:24;;;;;;;42.30;20.40;;;;;;;-0.71;100.00;97758.75;5049528;28;20209;-83
2022/01/25 03:33:51;;;;;;;45.07;22.00;;;;;;;-0.78;100.00;97767.22;5046574;28;20206;-82
2022/01/25 03:36:19;;;;;;;44.47;22.07;;;;;;;-0.81;100.00;97766.63;5032794;28;20198;-83
2022/01/25 03:38:47;;;;;;;48.67;22.30;;;;;;;-0.84;100.00;97756.25;5041915;28;20282;-82
2022/01/25 03:41:16;;;;;;;44.70;22.60;;;;;;;-0.91;100.00;97753.28;5034263;28;20202;-82
2022/01/25 03:43:45;;;;;;;48.27;22.23;;;;;;;-0.89;100.00;97763.75;5028981;28;20218;-82
2022/01/25 03:46:17;;;;;;;51.63;23.33;;;;;;;-0.96;100.00;97754.63;5030445;28;20255;-83
2022/01/25 03:51:29;;;;;;;44.00;21.27;;;;;;;-0.96;100.00;97758.13;5027219;28;20214;-83
2022/01/25 03:53:56;;;;;;;46.57;22.20;;;;;;;-1.05;100.00;97753.56;5027425;28;20198;-83
2022/01/25 03:56:25;;;;;;;50.50;22.03;;;;;;;-1.04;100.00;97752.59;5027069;28;20301;-83
2022/01/25 03:58:53;;;;;;;46.33;22.47;;;;;;;-1.07;100.00;97750.19;5020919;28;20202;-81
2022/01/25 04:01:20;;;;;;;46.03;21.17;;;;;;;-1.06;100.00;97746.56;5026713;28;20233;-83
2022/01/25 04:03:56;;;;;;;52.63;24.00;;;;;;;-1.05;100.00;97748.25;5028256;28;20302;-82
2022/01/25 04:06:24;;;;;;;48.37;22.23;;;;;;;-1.05;100.00;97750.06;5019994;28;20238;-82
2022/01/25 04:08:51;;;;;;;47.03;22.07;;;;;;;-1.09;100.00;97746.81;5029384;28;20329;-83
2022/01/25 04:11:19;;;;;;;45.73;21.07;;;;;;;-1.09;100.00;97745.97;5033084;28;20261;-83
2022/01/25 04:13:48;;;;;;;43.87;19.53;;;;;;;-1.08;100.00;97743.19;5023340;28;20213;-85
2022/01/25 04:16:21;;;;;;;46.77;21.40;;;;;;;-1.08;100.00;97743.19;5028272;28;20214;-84
2022/01/25 04:18:57;;;;;;;47.40;21.23;;;;;;;-1.06;100.00;97746.56;5044113;28;20208;-83
2022/01/25 04:21:41;;;;;;;44.77;20.97;;;;;;;-1.06;100.00;97745.72;5024344;28;20212;-82
2022/01/25 04:26:56;;;;;;;44.57;21.23;;;;;;;-1.13;100.00;97747.19;5040297;28;20402;-81
2022/01/25 04:29:25;;;;;;;47.43;21.67;;;;;;;-1.16;100.00;97740.31;5026624;28;20232;-82
2022/01/25 04:31:52;;;;;;;47.40;20.83;;;;;;;-1.16;100.00;97741.16;5033065;28;20220;-81
2022/01/25 04:51:12;;;;;;;44.63;20.93;;;;;;;-1.12;100.00;97725.03;5042103;28;20217;-83
2022/01/25 04:53:47;;;;;;;46.93;21.27;;;;;;;-1.17;100.00;97733.31;5019211;28;20210;-84
2022/01/25 04:56:21;;;;;;;46.13;20.53;;;;;;;-1.21;100.00;97721.31;5042871;28;20220;-83
2022/01/25 04:58:54;;;;;;;44.77;20.23;;;;;;;-1.22;100.00;97715.16;5044262;28;20202;-83
2022/01/25 05:01:23;;;;;;;46.30;21.47;;;;;;;-1.27;100.00;97719.13;5040151;28;20198;-81
2022/01/25 05:03:59;;;;;;;45.73;21.10;;;;;;;-1.24;100.00;97716.25;5026583;28;20194;-82
2022/01/25 05:06:27;;;;;;;43.60;20.57;;;;;;;-1.23;100.00;97715.28;5041780;28;20229;-83
2022/01/25 05:09:06;;;;;;;40.93;19.47;;;;;;;-1.18;100.00;97721.03;5037311;28;20225;-82
2022/01/25 05:11:36;;;;;;;45.13;20.70;;;;;;;-1.20;100.00;97715.88;5025065;28;20230;-82
2022/01/25 05:16:51;;;;;;;42.77;20.83;;;;;;;-1.19;100.00;97720.19;5022894;28;20225;-82
2022/01/25 05:22:05;;;;;;;48.33;21.77;;;;;;;-1.21;100.00;97721.31;5010102;28;20211;-82
2022/01/25 05:24:33;;;;;;;39.37;19.37;;;;;;;-1.16;100.00;97724.41;5030405;28;20195;-82
2022/01/25 05:27:01;;;;;;;41.40;19.63;;;;;;;-1.22;100.00;97719.63;5023484;28;20261;-82
2022/01/25 05:29:28;;;;;;;43.87;19.57;;;;;;;-1.16;100.00;97729.72;5024704;28;20229;-82
2022/01/25 05:31:57;;;;;;;41.10;19.43;;;;;;;-1.19;100.00;97722.00;5038024;28;20242;-83
2022/01/25 05:34:24;;;;;;;40.63;20.17;;;;;;;-1.24;100.00;97729.50;5021026;28;20211;-84
2022/01/25 05:36:52;;;;;;;42.43;20.57;;;;;;;-1.25;100.00;97733.09;5024705;28;20223;-82
2022/01/25 05:39:23;;;;;;;44.87;20.57;;;;;;;-1.18;100.00;97723.69;5020442;28;20210;-82
2022/01/25 05:41:57;;;;;;;39.67;19.53;;;;;;;-1.27;100.00;97725.28;5024103;28;20205;-82
2022/01/25 05:44:38;;;;;;;44.03;21.07;;;;;;;-1.27;100.00;97729.72;5015940;28;20230;-83
2022/01/25 05:47:12;;;;;;;40.57;19.33;;;;;;;-1.23;100.00;97729.38;5033838;28;20226;-82
2022/01/25 05:49:40;;;;;;;43.57;20.03;;;;;;;-1.20;100.00;97736.25;5034182;28;20219;-81
2022/01/25 05:52:10;;;;;;;42.30;20.63;;;;;;;-1.22;100.00;97724.91;5037485;28;20195;-82
2022/01/25 05:54:38;;;;;;;46.27;21.30;;;;;;;-1.23;100.00;97724.06;5019841;28;20298;-83
2022/01/25 05:57:06;;;;;;;44.83;21.07;;;;;;;-1.18;100.00;97732.47;5037914;28;20207;-83
2022/01/25 05:59:35;;;;;;;41.27;21.33;;;;;;;-1.17;100.00;97733.31;5026723;28;20208;-82
2022/01/25 06:02:02;;;;;;;41.83;19.40;;;;;;;-1.17;100.00;97734.16;5014397;28;20346;-81
2022/01/25 06:04:30;;;;;;;36.33;18.27;;;;;;;-1.16;100.00;97727.91;5020207;28;20301;-83
2022/01/25 06:06:57;;;;;;;37.10;18.20;;;;;;;-1.22;100.00;97738.16;5040001;28;20234;-82
2022/01/25 06:09:25;;;;;;;43.33;19.87;;;;;;;-1.26;100.00;97734.91;5015173;28;20219;-82
2022/01/25 06:11:53;;;;;;;39.43;18.03;;;;;;;-1.24;100.00;97743.59;5019475;28;20246;-83
2022/01/25 06:14:20;;;;;;;38.53;19.43;;;;;;;-1.33;100.00;97749.63;5036208;28;20244;-82
2022/01/25 06:16:47;;;;;;;41.27;19.57;;;;;;;-1.43;100.00;97743.38;5019023;28;20214;-82
2022/01/25 06:19:14;;;;;;;37.43;19.37;;;;;;;-1.48;100.00;97742.06;5017074;28;20218;-81
2022/01/25 06:21:43;;;;;;;40.00;18.77;;;;;;;-1.52;100.00;97744.94;5022934;28;20203;-82
2022/01/25 06:24:10;;;;;;;42.60;20.03;;;;;;;-1.47;100.00;97755.19;5022316;28;20218;-82
2022/01/25 06:26:37;;;;;;;40.80;19.73;;;;;;;-1.55;100.00;97745.19;5023235;28;20209;-83
2022/01/25 06:29:04;;;;;;;42.87;20.13;;;;;;;-1.52;100.00;97757.34;5038935;28;20203;-82
2022/01/25 06:31:31;;;;;;;41.03;19.07;;;;;;;-1.54;100.00;97756.63;5018065;28;20218;-83
2022/01/25 06:33:59;;;;;;;45.60;19.17;;;;;;;-1.44;100.00;97760.22;5021455;28;20285;-83
2022/01/25 06:36:26;;;;;;;41.03;19.27;;;;;;;-1.45;100.00;97750.63;5019612;28;20207;-83
2022/01/25 06:38:55;;;;;;;44.73;20.43;;;;;;;-1.43;100.00;97748.66;5036652;28;20218;-83
2022/01/25 06:41:22;;;;;;;49.57;20.53;;;;;;;-1.38;100.00;97756.25;5026771;28;20290;-83
2022/01/25 06:43:49;;;;;;;42.13;21.13;;;;;;;-1.41;100.00;97753.84;5015505;28;20210;-83
2022/01/25 06:46:16;;;;;;;43.50;19.50;;;;;;;-1.45;100.00;97741.81;5020948;28;20210;-82
2022/01/25 06:48:43;;;;;;;39.57;19.17;;;;;;;-1.48;100.00;97750.84;5024870;28;20241;-83
2022/01/25 06:51:10;;;;;;;38.63;17.93;;;;;;;-1.62;100.00;97754.59;5020448;28;20242;-83
2022/01/25 06:53:38;;;;;;;44.37;20.03;;;;;;;-1.67;100.00;97761.19;5026080;28;20214;-83
2022/01/25 06:56:06;;;;;;;40.27;18.23;;;;;;;-1.72;100.00;97753.63;5034849;28;20216;-83
2022/01/25 06:58:34;;;;;;;38.90;18.97;;;;;;;-1.84;100.00;97754.56;5024924;28;20211;-82
2022/01/25 07:01:01;;;;;;;38.60;16.97;;;;;;;-1.92;100.00;97757.81;5026687;28;20210;-84
2022/01/25 07:03:28;;;;;;;41.10;17.70;;;;;;;-1.91;100.00;97754.22;5023697;28;20210;-82
2022/01/25 07:05:55;;;;;;;42.17;18.37;;;;;;;-1.93;100.00;97760.56;5023786;28;20320;-82
2022/01/25 07:08:22;;;;;;;41.70;18.00;;;;;;;-1.91;100.00;97758.66;5026771;28;20205;-82
2022/01/25 07:10:49;;;;;;;40.27;18.57;;;;;;;-1.96;100.00;97755.53;5024421;28;20221;-83
2022/01/25 07:13:18;;;;;;;53.50;24.27;;;;;;;-2.02;100.00;97751.53;5025599;28;20502;-82
2022/01/25 07:15:45;;;;;;;58.50;26.05;;;;;;;-1.96;100.00;97744.94;5026797;28;20429;-83
2022/01/25 07:18:15;;;;;;;48.57;22.47;;;;;;;-1.92;100.00;97751.66;5032405;28;20216;-82
2022/01/25 07:20:42;;;;;;;41.70;20.10;;;;;;;-1.93;100.00;97758.78;5039466;28;20201;-83
2022/01/25 07:23:09;;;;;;;43.23;18.60;;;;;;;-1.99;100.00;97759.25;5020354;28;20212;-83
2022/01/25 07:25:36;;;;;;;40.63;17.97;;;;;;;-2.03;100.00;97765.72;5039094;28;20204;-83
2022/01/25 07:28:03;;;;;;;41.67;18.33;;;;;;;-2.00;100.00;97764.66;5024002;28;20290;-83
2022/01/25 07:30:32;;;;;;;38.67;17.13;;;;;;;-1.93;100.00;97765.88;5031607;28;20328;-83
2022/01/25 07:33:02;;;;;;;36.30;17.63;;;;;;;-1.88;100.00;97771.66;5034529;28;20267;-83
2022/01/25 07:35:29;;;;;;;42.87;19.17;;;;;;;-1.82;100.00;97779.13;5032629;28;20206;-82
2022/01/25 07:37:56;;;;;;;47.70;19.87;;;;;;;-1.85;100.00;97763.47;5047397;28;20203;-83
2022/01/25 07:40:23;;;;;;;49.73;22.37;;;;;;;-1.73;100.00;97778.41;5019174;28;20217;-83
2022/01/25 07:42:50;;;;;;;46.00;22.07;;;;;;;-1.74;100.00;97776.72;5023691;28;20297;-84
2022/01/25 07:45:18;;;;;;;49.13;22.47;;;;;;;-1.66;100.00;97778.78;5027905;28;20214;-83
2022/01/25 07:47:46;;;;;;;44.90;21.07;;;;;;;-1.58;100.00;97787.81;5021859;28;20215;-83
2022/01/25 07:50:14;;;;;;;39.97;18.90;;;;;;;-1.54;100.00;97789.28;5045265;28;20218;-83
2022/01/25 07:52:41;;;;;;;39.00;19.27;;;;;;;-1.51;100.00;97793.47;5046966;28;20303;-82
2022/01/25 07:55:10;;;;;;;40.60;18.70;;;;;;;-1.42;100.00;97797.19;5054239;28;20232;-83
2022/01/25 07:57:37;;;;;;;42.60;18.70;;;;;;;-1.51;100.00;97788.16;5047876;28;20281;-82
2022/01/25 08:00:06;;;;;;;37.87;17.77;;;;;;;-1.61;100.00;97776.59;5017777;28;20202;-82
2022/01/25 08:02:41;;;;;;;43.03;19.33;;;;;;;-1.52;100.00;97791.78;5043257;28;20212;-83
2022/01/25 08:05:10;;;;;;;39.40;17.97;;;;;;;-1.49;100.00;97796.00;5046877;28;20198;-83
2022/01/25 08:07:37;;;;;;;40.83;17.67;;;;;;;-1.60;100.00;97791.53;5026300;28;20232;-82
2022/01/25 08:10:05;;;;;;;35.73;16.33;;;;;;;-1.62;100.00;97799.63;5025514;28;20260;-83
2022/01/25 08:12:32;;;;;;;40.17;17.50;;;;;;;-1.65;100.00;97806.94;5017773;28;20229;-82
2022/01/25 08:15:00;;;;;;;42.80;18.30;;;;;;;-1.67;100.00;97806.22;5025624;28;20526;-83
2022/01/25 08:17:27;;;;;;;43.97;19.23;;;;;;;-1.72;100.00;97811.88;5028608;28;20217;-82
2022/01/25 08:19:54;;;;;;;47.07;20.37;;;;;;;-1.73;100.00;97804.91;5030737;28;20213;-82
2022/01/25 08:22:24;;;;;;;45.80;18.53;;;;;;;-1.77;100.00;97806.09;5030055;28;20284;-82
2022/01/25 08:24:51;;;;;;;40.77;19.03;;;;;;;-1.72;100.00;97809.22;5029696;28;20214;-83
2022/01/25 08:27:20;;;;;;;44.37;18.20;;;;;;;-1.85;100.00;97805.81;5032090;28;20255;-82
2022/01/25 08:29:47;;;;;;;41.07;18.27;;;;;;;-1.84;100.00;97819.91;5029202;28;20228;-83
2022/01/25 08:32:14;;;;;;;43.17;19.27;;;;;;;-1.80;100.00;97813.44;5056051;28;20209;-82
2022/01/25 08:34:41;;;;;;;42.27;18.90;;;;;;;-1.79;100.00;97817.78;5044989;28;20205;-82
2022/01/25 08:37:08;;;;;;;41.63;18.30;;;;;;;-1.79;100.00;97815.97;5029374;28;20214;-82
2022/01/25 08:39:37;;;;;;;44.23;18.50;;;;;;;-1.74;100.00;97816.44;5040763;28;20285;-82
2022/01/25 08:42:05;;;;;;;41.67;18.20;;;;;;;-1.65;100.00;97818.38;5034195;28;20282;-82
2022/01/25 08:44:32;;;;;;;47.07;20.30;;;;;;;-1.81;100.00;97812.59;5028549;28;20209;-83
2022/01/25 08:46:59;;;;;;;53.17;21.47;;;;;;;-1.76;100.00;97804.28;5023726;28;20240;-82
2022/01/25 08:49:27;;;;;;;44.03;20.07;;;;;;;-1.73;100.00;97796.09;5027259;28;20217;-83
2022/01/25 08:51:55;;;;;;;48.63;21.00;;;;;;;-1.70;100.00;97803.81;5030434;28;20351;-81
2022/01/25 08:54:22;;;;;;;47.33;19.33;;;;;;;-1.67;100.00;97803.56;5037013;28;20237;-83
2022/01/25 08:56:50;;;;;;;44.83;19.17;;;;;;;-1.68;100.00;97808.03;5027471;28;20195;-83
2022/01/25 08:59:17;;;;;;;46.03;19.13;;;;;;;-1.76;100.00;97799.81;5031125;28;20214;-82
2022/01/25 09:01:45;;;;;;;44.67;19.10;;;;;;;-1.69;100.00;97805.50;5021070;28;20194;-82
2022/01/25 09:04:12;;;;;;;42.30;18.33;;;;;;;-1.80;100.00;97801.03;5026749;28;20205;-82
2022/01/25 09:06:39;;;;;;;40.73;17.70;;;;;;;-1.83;100.00;97797.78;5027924;28;20280;-83
2022/01/25 09:09:09;;;;;;;43.70;18.63;;;;;;;-1.82;100.00;97792.38;5025585;28;20237;-82
2022/01/25 09:11:38;;;;;;;52.80;18.00;;;;;;;-1.89;100.00;97799.09;5045292;28;20229;-82
2022/01/25 09:14:07;;;;;;;40.00;17.67;;;;;;;-1.98;100.00;97799.81;5028893;28;20300;-82
2022/01/25 09:16:35;;;;;;;41.27;17.37;;;;;;;-1.97;100.00;97801.50;5029820;28;20455;-82
2022/01/25 09:19:03;;;;;;;52.22;24.45;;;;;;;-1.85;100.00;97805.00;5038590;28;20425;-82
2022/01/25 09:21:30;;;;;;;51.95;23.10;;;;;;;-1.74;100.00;97802.38;5018404;28;20522;-83
2022/01/25 09:23:57;;;;;;;38.07;17.33;;;;;;;-1.65;100.00;97789.25;5031937;28;20298;-86
2022/01/25 09:26:25;;;;;;;38.67;17.43;;;;;;;-1.47;100.00;97810.81;5025525;28;20270;-82
2022/01/25 09:28:54;;;;;;;35.93;16.57;;;;;;;-1.32;100.00;97801.66;5025580;28;20210;-83
2022/01/25 09:31:24;;;;;;;32.97;16.30;;;;;;;-1.23;100.00;97811.53;5042832;28;20236;-83
2022/01/25 09:33:51;;;;;;;39.53;18.37;;;;;;;-1.19;100.00;97806.81;5025765;28;20202;-82
2022/01/25 09:36:18;;;;;;;32.27;16.37;;;;;;;-1.19;100.00;97806.81;5017993;28;20214;-84
2022/01/25 09:38:45;;;;;;;33.07;15.33;;;;;;;-1.15;100.00;97800.31;5046308;28;20284;-84
2022/01/25 09:41:14;;;;;;;30.27;15.60;;;;;;;-1.08;100.00;97805.97;5036562;28;20308;-83
2022/01/25 09:43:41;;;;;;;36.33;17.13;;;;;;;-1.13;100.00;97811.66;5019242;28;20199;-82
2022/01/25 09:46:08;;;;;;;36.73;17.43;;;;;;;-1.00;100.00;97812.34;5035181;28;20206;-83
2022/01/25 09:48:36;;;;;;;33.90;17.50;;;;;;;-0.97;100.00;97809.44;5044540;28;20203;-83
2022/01/25 09:51:04;;;;;;;37.50;17.73;;;;;;;-0.84;100.00;97814.59;5048353;28;20225;-83
2022/01/25 09:53:33;;;;;;;38.80;18.83;;;;;;;-0.70;100.00;97821.47;5044517;28;20198;-82
2022/01/25 09:56:00;;;;;;;34.20;17.70;;;;;;;-0.60;100.00;97833.84;5026235;28;20221;-82
2022/01/25 09:58:28;;;;;;;31.80;15.30;;;;;;;-0.65;100.00;97829.88;5025988;28;20194;-83
2022/01/25 10:00:57;;;;;;;40.23;18.27;;;;;;;-0.65;100.00;97837.84;5045211;28;20202;-83
2022/01/25 10:03:29;;;;;;;38.23;15.70;;;;;;;-0.57;100.00;97832.75;5023733;28;20209;-83
2022/01/25 10:06:00;;;;;;;37.87;17.80;;;;;;;-0.53;100.00;97831.53;5045000;28;20222;-83
2022/01/25 10:08:30;;;;;;;37.07;16.87;;;;;;;-0.55;100.00;97820.19;5022027;28;20263;-84
2022/01/25 10:10:59;;;;;;;37.97;18.57;;;;;;;-0.52;100.00;97835.88;5047824;28;20230;-84
2022/01/25 10:13:28;;;;;;;40.80;18.13;;;;;;;-0.50;100.00;97836.56;5052213;28;20301;-82
2022/01/25 10:16:01;;;;;;;37.50;17.63;;;;;;;-0.51;100.00;97833.06;5040976;28;20269;-83
2022/01/25 10:18:43;;;;;;;43.90;18.57;;;;;;;-0.43;100.00;97837.78;5039250;28;20274;-83
2022/01/25 10:21:15;;;;;;;36.10;18.00;;;;;;;-0.39;100.00;97836.56;5029738;28;20213;-82
2022/01/25 10:24:00;;;;;;;37.60;17.77;;;;;;;-0.40;100.00;97842.81;5041326;28;20229;-82
2022/01/25 10:26:30;;;;;;;38.93;17.93;;;;;;;-0.44;100.00;97836.09;5033688;28;20229;-83
2022/01/25 10:28:57;;;;;;;37.22;19.95;;;;;;;-0.53;100.00;97836.84;5025333;28;20449;-83
2022/01/25 10:31:34;;;;;;;39.73;21.53;;;;;;;-0.70;100.00;97826.75;5032193;28;20433;-84
2022/01/25 10:34:02;;;;;;;38.77;18.73;;;;;;;-0.67;100.00;97823.84;5017797;28;20262;-85
2022/01/25 10:36:31;;;;;;;36.93;18.20;;;;;;;-0.62;100.00;97827.81;5025134;28;20219;-85
2022/01/25 10:38:58;;;;;;;32.50;16.30;;;;;;;-0.65;100.00;97819.25;5049078;28;20201;-83
2022/01/25 10:41:27;;;;;;;37.37;16.93;;;;;;;-0.71;100.00;97815.31;5031532;28;20289;-83
2022/01/25 10:43:56;;;;;;;33.33;16.17;;;;;;;-0.54;100.00;97820.09;5035078;28;20318;-83
2022/01/25 10:46:26;;;;;;;31.83;15.63;;;;;;;-0.45;100.00;97831.75;5037292;28;20209;-83
2022/01/25 10:48:57;;;;;;;36.17;17.40;;;;;;;-0.37;100.00;97826.66;5046278;28;20304;-82
2022/01/25 10:51:28;;;;;;;36.03;17.60;;;;;;;-0.36;100.00;97820.38;5037889;28;20222;-83
2022/01/25 10:54:03;;;;;;;40.23;18.67;;;;;;;-0.29;100.00;97813.59;5030903;28;20267;-83
2022/01/25 10:56:39;;;;;;;38.27;17.77;;;;;;;-0.16;100.00;97819.56;5017854;28;20205;-83
2022/01/25 10:59:08;;;;;;;37.03;17.73;;;;;;;-0.11;100.00;97819.19;5029543;28;20206;-83
2022/01/25 11:01:38;;;;;;;40.63;19.23;;;;;;;-0.08;100.00;97811.78;5049730;28;20199;-83
2022/01/25 11:04:08;;;;;;;40.20;17.03;;;;;;;0.06;100.00;97799.19;5048148;28;20293;-83
2022/01/25 11:06:35;;;;;;;36.17;17.67;;;;;;;-0.02;100.00;97792.72;5046129;28;20240;-84
2022/01/25 11:09:06;;;;;;;39.37;16.87;;;;;;;0.06;100.00;97804.50;5047645;28;20209;-83
2022/01/25 11:11:38;;;;;;;37.97;17.20;;;;;;;-0.07;100.00;97799.34;5030985;28;20227;-83
2022/01/25 11:16:53;;;;;;;38.63;17.93;;;;;;;0.09;100.00;97798.91;5015860;28;20219;-83
2022/01/25 11:19:20;;;;;;;39.97;19.07;;;;;;;0.06;100.00;97788.56;5023262;28;20210;-82
2022/01/25 11:21:49;;;;;;;40.47;18.00;;;;;;;-0.09;100.00;97794.19;5028799;28;20293;-83
2022/01/25 11:24:19;;;;;;;39.53;19.07;;;;;;;-0.14;100.00;97793.72;5054407;28;20208;-83
2022/01/25 11:26:48;;;;;;;41.73;19.20;;;;;;;-0.10;100.00;97787.19;5029136;28;20210;-83
2022/01/25 11:29:16;;;;;;;42.20;19.10;;;;;;;-0.02;100.00;97790.06;5027793;28;20214;-83
2022/01/25 11:31:48;;;;;;;38.50;17.43;;;;;;;-0.03;100.00;97783.06;5030279;28;20223;-84
2022/01/25 11:34:17;;;;;;;37.70;17.00;;;;;;;0.08;100.00;97783.97;5045430;28;20206;-85
2022/01/25 11:36:47;;;;;;;36.60;18.60;;;;;;;0.13;100.00;97793.22;5021114;28;20207;-83
2022/01/25 11:39:20;;;;;;;37.40;17.27;;;;;;;0.00;100.00;97777.47;5047540;28;20213;-84
2022/01/25 11:41:47;;;;;;;41.43;16.20;;;;;;;0.06;100.00;97785.91;5021765;28;20207;-83
2022/01/25 11:44:21;;;;;;;30.27;15.77;;;;;;;0.02;100.00;97771.19;5029755;28;20662;-83
2022/01/25 11:46:51;;;;;;;37.60;18.10;;;;;;;0.15;100.00;97779.81;5043814;28;20206;-83
2022/01/25 11:49:20;;;;;;;36.53;17.83;;;;;;;0.22;100.00;97773.00;5017998;28;20229;-83
2022/01/25 11:52:06;;;;;;;42.03;17.87;;;;;;;0.40;100.00;97779.41;5044687;28;20222;-84
2022/01/25 11:54:36;;;;;;;51.13;18.90;;;;;;;0.49;100.00;97778.59;5045166;28;20268;-84
2022/01/25 11:57:12;;;;;;;34.60;16.37;;;;;;;0.55;100.00;97786.03;5046039;28;20294;-83
2022/01/25 11:59:40;;;;;;;41.20;15.87;;;;;;;0.49;100.00;97777.75;5017229;28;20203;-84
2022/01/25 12:02:07;;;;;;;37.90;16.80;;;;;;;0.49;100.00;97770.63;5018737;28;20210;-84
2022/01/25 12:04:34;;;;;;;33.40;16.57;;;;;;;0.62;100.00;97776.53;5020952;28;20206;-85
2022/01/25 12:07:11;;;;;;;29.17;15.30;;;;;;;0.69;100.00;97769.72;5029575;28;20288;-84
2022/01/25 12:09:49;;;;;;;37.53;16.17;;;;;;;0.68;100.00;97768.03;5028181;28;20265;-83
2022/01/25 12:12:17;;;;;;;45.87;16.73;;;;;;;0.69;100.00;97763.56;5045136;28;20312;-84
2022/01/25 12:14:48;;;;;;;47.57;16.93;;;;;;;0.74;100.00;97764.00;5023316;28;20306;-84
2022/01/25 12:17:17;;;;;;;33.27;15.67;;;;;;;0.69;100.00;97761.75;5027000;28;20215;-84
2022/01/25 12:19:48;;;;;;;32.33;15.07;;;;;;;0.63;100.00;97756.97;5046027;28;20200;-83
2022/01/25 12:22:35;;;;;;;31.97;14.17;;;;;;;0.59;100.00;97760.03;5046098;28;20305;-84
2022/01/25 12:25:13;;;;;;;30.30;15.73;;;;;;;0.59;100.00;97754.72;5042645;28;20211;-83
2022/01/25 12:27:47;;;;;;;35.67;16.60;;;;;;;0.68;100.00;97748.59;5016759;28;20206;-83
2022/01/25 12:30:18;;;;;;;35.77;16.53;;;;;;;0.77;100.00;97737.13;5040708;28;20211;-83
2022/01/25 12:32:58;;;;;;;36.90;15.37;;;;;;;0.82;100.00;97734.09;5024962;28;20236;-84
2022/01/25 12:35:44;;;;;;;30.00;14.53;;;;;;;0.98;100.00;97727.25;5030938;28;20208;-83
2022/01/25 12:38:16;;;;;;;30.10;15.73;;;;;;;1.16;100.00;97734.56;5019048;28;20241;-88